Time;durP1;ratioP1;P1;durP2;ratioP2;P2;SDS_P1;SDS_P2;PMS_P1;PMS_P2;Temp;Humidity;BMP_temperature;BMP_pressure;BME280_temperature;BME280_humidity;BME280_pressure;Samples;Min_cycle;Max_cycle;Signal;HPM_P1;HPM_P2
2023/12/12 00:00:44;;;;;;;11.73;1.52;;;;;;;-146.25;100.00;52645.97;2080249;28;38211;-77
2023/12/12 00:01:45;;;;;;;10.02;1.33;;;;;;;-146.25;100.00;52676.41;2080719;28;20784;-80
2023/12/12 00:02:47;;;;;;;10.45;1.40;;;;;;;-146.25;100.00;52668.28;2079848;28;36794;-78
2023/12/12 00:03:50;;;;;;;9.48;1.27;;;;;;;-146.25;100.00;52680.47;2080265;28;30301;-79
2023/12/12 00:04:52;;;;;;;11.00;1.30;;;;;;;-146.25;100.00;52660.19;2079792;28;34622;-79
2023/12/12 00:05:53;;;;;;;9.88;1.13;;;;;;;-146.25;100.00;52696.69;2079997;28;37371;-81
2023/12/12 00:06:55;;;;;;;8.60;1.10;;;;;;;-146.25;100.00;52670.31;2079996;28;34446;-79
2023/12/12 00:08:00;;;;;;;8.15;1.40;;;;;;;-146.25;100.00;52672.34;2080169;28;34665;-78
2023/12/12 00:09:02;;;;;;;14.18;1.25;;;;;;;-146.25;100.00;52662.22;2079179;28;36170;-80
2023/12/12 00:10:08;;;;;;;8.40;1.50;;;;;;;-146.25;100.00;52686.53;2080382;28;20045;-80
2023/12/12 00:11:10;;;;;;;8.93;1.30;;;;;;;-146.25;100.00;52648.00;2079542;28;39414;-79
2023/12/12 00:12:11;;;;;;;8.13;1.58;;;;;;;-146.25;100.00;52645.97;2079841;28;35525;-80
2023/12/12 00:13:13;;;;;;;6.93;1.05;;;;;;;-146.25;100.00;52678.44;2079493;28;33900;-80
2023/12/12 00:14:17;;;;;;;7.40;1.17;;;;;;;-146.25;100.00;52712.91;2080748;28;20177;-78
2023/12/12 00:15:21;;;;;;;7.78;1.23;;;;;;;-146.25;100.00;52688.56;2080515;28;20045;-80
2023/12/12 00:16:23;;;;;;;9.65;1.33;;;;;;;-146.25;100.00;52678.44;2079828;28;37966;-81
2023/12/12 00:17:25;;;;;;;9.27;1.30;;;;;;;-146.25;100.00;52678.44;2079669;28;36577;-80
2023/12/12 00:18:27;;;;;;;7.32;1.10;;;;;;;-146.25;100.00;52670.31;2080479;28;20831;-81
2023/12/12 00:19:29;;;;;;;5.50;1.20;;;;;;;-146.25;100.00;52692.63;2080138;28;37105;-76
2023/12/12 00:20:33;;;;;;;8.57;1.02;;;;;;;-146.25;100.00;52692.63;2079687;28;35641;-79
2023/12/12 00:21:36;;;;;;;4.65;1.00;;;;;;;-146.25;100.00;52672.34;2080477;28;20045;-77
2023/12/12 00:22:43;;;;;;;8.73;1.17;;;;;;;-146.25;100.00;52662.22;2079634;28;37604;-79
2023/12/12 00:23:45;;;;;;;8.38;1.45;;;;;;;-146.25;100.00;52654.09;2080181;28;35194;-79
2023/12/12 00:24:46;;;;;;;9.45;1.58;;;;;;;-146.25;100.00;52658.16;2079837;28;35497;-78
2023/12/12 00:25:48;;;;;;;11.77;2.00;;;;;;;-146.25;100.00;52678.44;2079711;28;35933;-79
2023/12/12 00:26:50;;;;;;;7.93;1.30;;;;;;;-146.25;100.00;52662.22;2080335;28;33583;-79
2023/12/12 00:27:52;;;;;;;8.30;1.35;;;;;;;-146.25;100.00;52690.59;2080729;28;20818;-76
2023/12/12 00:28:56;;;;;;;9.35;1.10;;;;;;;-146.25;100.00;52688.56;2079747;28;38977;-79
2023/12/12 00:29:58;;;;;;;9.13;1.17;;;;;;;-146.25;100.00;52648.00;2080297;28;20050;-79
2023/12/12 00:31:02;;;;;;;13.00;1.50;;;;;;;-146.25;100.00;52662.22;2079542;28;35161;-79
2023/12/12 00:32:04;;;;;;;10.35;1.20;;;;;;;-146.25;100.00;52684.50;2079537;28;34854;-79
2023/12/12 00:33:07;;;;;;;6.28;1.15;;;;;;;-146.25;100.00;52682.47;2079866;28;34166;-81
2023/12/12 00:34:09;;;;;;;8.60;1.35;;;;;;;-146.25;100.00;52660.19;2080387;28;20042;-79
2023/12/12 00:35:13;;;;;;;7.85;1.40;;;;;;;-146.25;100.00;52658.16;2080293;28;20081;-80
2023/12/12 00:36:15;;;;;;;8.52;1.23;;;;;;;-146.25;100.00;52686.53;2079605;28;36771;-79
2023/12/12 00:37:17;;;;;;;12.35;1.38;;;;;;;-146.25;100.00;52684.50;2079763;28;34722;-79
2023/12/12 00:38:19;;;;;;;11.82;1.23;;;;;;;-146.25;100.00;52676.41;2079505;28;37819;-79
2023/12/12 00:39:23;;;;;;;11.77;1.33;;;;;;;-146.25;100.00;52696.69;2080378;28;20038;-79
2023/12/12 00:40:27;;;;;;;6.32;1.00;;;;;;;-146.25;100.00;52658.16;2079674;28;36413;-80
2023/12/12 00:41:33;;;;;;;7.50;1.13;;;;;;;-146.25;100.00;52629.75;2080086;28;33871;-80
2023/12/12 00:42:34;;;;;;;7.43;1.30;;;;;;;-146.25;100.00;52692.63;2080688;28;20045;-80
2023/12/12 00:43:40;;;;;;;5.60;1.00;;;;;;;-146.25;100.00;52690.59;2079997;28;37980;-80
2023/12/12 00:44:42;;;;;;;6.80;1.23;;;;;;;-146.25;100.00;52700.72;2079037;28;37101;-81
2023/12/12 00:45:43;;;;;;;7.93;1.00;;;;;;;-146.25;100.00;52666.25;2080209;28;20033;-80
2023/12/12 00:46:45;;;;;;;10.05;1.60;;;;;;;-146.25;100.00;52692.63;2079407;28;32213;-80
2023/12/12 00:47:48;;;;;;;5.47;1.15;;;;;;;-146.25;100.00;52678.44;2080517;28;20050;-80
2023/12/12 00:48:50;;;;;;;10.93;1.30;;;;;;;-146.25;100.00;52680.47;2080221;28;20046;-80
2023/12/12 00:49:53;;;;;;;6.88;1.08;;;;;;;-146.25;100.00;52694.66;2079360;28;36504;-80
2023/12/12 00:50:56;;;;;;;7.57;1.40;;;;;;;-146.25;100.00;52668.28;2079914;28;20102;-79
2023/12/12 00:51:58;;;;;;;8.95;1.10;;;;;;;-146.25;100.00;52639.91;2080616;28;20070;-79
2023/12/12 00:53:00;;;;;;;7.72;1.05;;;;;;;-146.25;100.00;52684.50;2079416;28;36218;-81
2023/12/12 00:54:02;;;;;;;7.50;1.48;;;;;;;-146.25;100.00;52654.09;2080188;28;34285;-79
2023/12/12 00:55:06;;;;;;;7.75;1.40;;;;;;;-146.25;100.00;52694.66;2079269;28;34776;-79
2023/12/12 00:56:08;;;;;;;9.00;1.23;;;;;;;-146.25;100.00;52686.53;2079840;28;36372;-80
2023/12/12 00:57:10;;;;;;;7.05;1.30;;;;;;;-146.25;100.00;52652.06;2080130;28;35656;-80
2023/12/12 00:58:12;;;;;;;6.10;1.50;;;;;;;-146.25;100.00;52662.22;2080032;28;20088;-80
2023/12/12 00:59:14;;;;;;;9.77;1.40;;;;;;;-146.25;100.00;52706.81;2079670;28;35916;-79
2023/12/12 01:00:17;;;;;;;7.38;1.33;;;;;;;-146.25;100.00;52692.63;2079483;28;36648;-79
2023/12/12 01:01:18;;;;;;;9.68;1.33;;;;;;;-146.25;100.00;52672.34;2078875;28;34593;-79
2023/12/12 01:02:25;;;;;;;13.25;1.63;;;;;;;-146.25;100.00;52668.28;2079263;28;37491;-80
2023/12/12 01:03:27;;;;;;;5.40;1.10;;;;;;;-146.25;100.00;52650.03;2080067;28;20042;-80
2023/12/12 01:04:34;;;;;;;7.68;1.23;;;;;;;-146.25;100.00;52690.59;2080224;28;37925;-79
2023/12/12 01:05:36;;;;;;;7.55;1.10;;;;;;;-146.25;100.00;52670.31;2078771;28;35112;-80
2023/12/12 01:06:37;;;;;;;10.52;1.38;;;;;;;-146.25;100.00;52643.97;2079983;28;34975;-78
2023/12/12 01:07:39;;;;;;;7.18;0.98;;;;;;;-146.25;100.00;52670.31;2078524;28;35374;-79
2023/12/12 01:08:41;;;;;;;7.15;1.40;;;;;;;-146.25;100.00;52660.19;2079852;28;20157;-80
2023/12/12 01:09:43;;;;;;;5.43;1.13;;;;;;;-146.25;100.00;52706.81;2079561;28;36358;-79
2023/12/12 01:10:49;;;;;;;6.68;1.67;;;;;;;-146.25;100.00;52643.97;2079885;28;35163;-79
2023/12/12 01:11:52;;;;;;;9.18;1.13;;;;;;;-146.25;100.00;52688.56;2080352;28;20041;-79
2023/12/12 01:12:53;;;;;;;9.77;1.35;;;;;;;-146.25;100.00;52674.38;2080020;28;36227;-79
2023/12/12 01:13:55;;;;;;;7.50;1.15;;;;;;;-146.25;100.00;52674.38;2079297;28;36775;-80
2023/12/12 01:15:00;;;;;;;5.38;1.20;;;;;;;-146.25;100.00;52674.38;2079473;28;33015;-79
2023/12/12 01:16:01;;;;;;;12.05;1.58;;;;;;;-146.25;100.00;52621.66;2079094;28;33624;-79
2023/12/12 01:17:04;;;;;;;10.32;1.95;;;;;;;-146.25;100.00;52660.19;2079272;28;33898;-79
2023/12/12 01:18:05;;;;;;;8.50;1.10;;;;;;;-146.25;100.00;52656.13;2070875;28;20078;-79
2023/12/12 01:19:07;;;;;;;12.82;1.35;;;;;;;-146.25;100.00;52706.81;2071054;28;33129;-80
2023/12/12 01:20:10;;;;;;;7.28;1.40;;;;;;;-146.25;100.00;52706.81;2079216;28;32732;-82
2023/12/12 01:21:14;;;;;;;4.97;1.20;;;;;;;-146.25;100.00;52678.44;2078549;28;35475;-81
2023/12/12 01:22:16;;;;;;;5.10;1.30;;;;;;;-146.25;100.00;52706.81;2078434;28;39972;-80
2023/12/12 01:23:18;;;;;;;5.45;1.20;;;;;;;-146.25;100.00;52619.63;2079383;28;31259;-80
2023/12/12 01:24:22;;;;;;;8.65;1.50;;;;;;;-146.25;100.00;52658.16;2078543;28;35862;-79
2023/12/12 01:25:24;;;;;;;11.35;1.98;;;;;;;-146.25;100.00;52688.56;2079802;28;35843;-79
2023/12/12 01:26:26;;;;;;;9.23;1.35;;;;;;;-146.25;100.00;52660.19;2081466;28;32945;-79
2023/12/12 01:27:28;;;;;;;7.68;1.80;;;;;;;-146.25;100.00;52700.72;2081170;28;39247;-80
2023/12/12 01:28:30;;;;;;;10.02;1.40;;;;;;;-146.25;100.00;52658.16;2080878;28;33235;-80
2023/12/12 01:29:32;;;;;;;6.07;1.35;;;;;;;-146.25;100.00;52684.50;2080974;28;35148;-80
2023/12/12 01:30:33;;;;;;;6.50;1.83;;;;;;;-146.25;100.00;52650.03;2080900;28;34737;-79
2023/12/12 01:31:38;;;;;;;8.75;1.60;;;;;;;-146.25;100.00;52684.50;2081644;28;20042;-78
2023/12/12 01:32:40;;;;;;;7.22;1.58;;;;;;;-146.25;100.00;52643.97;2080714;28;36973;-80
2023/12/12 01:33:43;;;;;;;9.90;1.60;;;;;;;-146.25;100.00;52668.28;2081287;28;34170;-80
2023/12/12 01:34:45;;;;;;;6.75;1.42;;;;;;;-146.25;100.00;52668.28;2080618;28;20822;-79
2023/12/12 01:35:46;;;;;;;9.70;1.50;;;;;;;-146.25;100.00;52654.09;2080309;28;37170;-80
2023/12/12 01:36:51;;;;;;;5.75;1.90;;;;;;;-146.25;100.00;52680.47;2080918;28;36850;-79
2023/12/12 01:37:53;;;;;;;6.18;1.98;;;;;;;-146.25;100.00;52674.38;2081704;28;20038;-80
2023/12/12 01:38:55;;;;;;;6.88;1.70;;;;;;;-146.25;100.00;52710.88;2080541;28;36350;-80
2023/12/12 01:39:57;;;;;;;9.32;1.70;;;;;;;-146.25;100.00;52698.72;2080655;28;35846;-80
2023/12/12 01:40:59;;;;;;;10.10;1.67;;;;;;;-146.25;100.00;52639.91;2081329;28;20042;-80
2023/12/12 01:42:04;;;;;;;9.48;2.05;;;;;;;-146.25;100.00;52662.22;2080878;28;38441;-80
2023/12/12 01:43:06;;;;;;;7.82;2.05;;;;;;;-146.25;100.00;52668.28;2080567;28;33861;-79
2023/12/12 01:44:07;;;;;;;5.57;1.33;;;;;;;-146.25;100.00;52684.50;2081990;28;20041;-79
2023/12/12 01:45:09;;;;;;;10.15;1.45;;;;;;;-146.25;100.00;52645.97;2080829;28;34997;-79
2023/12/12 01:46:16;;;;;;;13.30;1.98;;;;;;;-146.25;100.00;52660.19;2081256;28;34127;-78
2023/12/12 01:47:18;;;;;;;7.35;1.50;;;;;;;-146.25;100.00;52633.81;2080106;28;33410;-77
2023/12/12 01:48:22;;;;;;;8.73;1.70;;;;;;;-146.25;100.00;52662.22;2080242;28;39193;-78
2023/12/12 01:49:24;;;;;;;5.25;1.60;;;;;;;-146.25;100.00;52686.53;2080365;28;33769;-78
2023/12/12 01:50:28;;;;;;;6.40;2.05;;;;;;;-146.25;100.00;52700.72;2081351;28;20959;-78
2023/12/12 01:51:30;;;;;;;11.02;1.73;;;;;;;-146.25;100.00;52639.91;2080646;28;37951;-77
2023/12/12 01:52:34;;;;;;;8.32;2.08;;;;;;;-146.25;100.00;52672.34;2080942;28;35396;-78
2023/12/12 01:53:45;;;;;;;9.13;2.20;;;;;;;-146.25;100.00;52688.56;2080840;28;35099;-77
2023/12/12 01:54:47;;;;;;;8.05;1.80;;;;;;;-146.25;100.00;52664.22;2080638;28;34355;-78
2023/12/12 01:55:52;;;;;;;7.32;2.15;;;;;;;-146.25;100.00;52696.69;2080698;28;33740;-78
2023/12/12 01:56:55;;;;;;;9.57;1.85;;;;;;;-146.25;100.00;52639.91;2081061;28;20045;-78
2023/12/12 01:57:57;;;;;;;11.60;2.15;;;;;;;-146.25;100.00;52700.72;2080387;28;36739;-78
2023/12/12 01:59:00;;;;;;;6.95;1.92;;;;;;;-146.25;100.00;52704.78;2080930;28;35398;-78
2023/12/12 02:00:02;;;;;;;9.85;2.10;;;;;;;-146.25;100.00;52658.16;2080402;28;36512;-78
2023/12/12 02:01:14;;;;;;;7.30;2.03;;;;;;;-146.25;100.00;52698.72;2081459;28;20101;-79
2023/12/12 02:02:16;;;;;;;7.25;1.70;;;;;;;-146.25;100.00;52662.22;2080926;28;20049;-78
2023/12/12 02:03:20;;;;;;;5.50;1.90;;;;;;;-146.25;100.00;52674.38;2080818;28;36052;-77
2023/12/12 02:04:22;;;;;;;11.65;2.03;;;;;;;-146.25;100.00;52672.34;2080356;28;20057;-78
2023/12/12 02:05:27;;;;;;;7.35;2.15;;;;;;;-146.25;100.00;52708.84;2072357;28;20039;-78
2023/12/12 02:06:29;;;;;;;10.73;2.58;;;;;;;-146.25;100.00;52672.34;2071749;28;35588;-77
2023/12/12 02:07:35;;;;;;;9.90;1.85;;;;;;;-146.25;100.00;52633.81;2072207;28;37057;-78
2023/12/12 02:08:38;;;;;;;7.03;1.77;;;;;;;-146.25;100.00;52680.47;2081409;28;20199;-78
2023/12/12 02:09:40;;;;;;;8.80;1.75;;;;;;;-146.25;100.00;52656.13;2080657;28;36848;-77
2023/12/12 02:10:42;;;;;;;7.43;1.67;;;;;;;-146.25;100.00;52674.38;2079909;28;35280;-78
2023/12/12 02:11:44;;;;;;;9.15;2.25;;;;;;;-146.25;100.00;52696.69;2080892;28;34653;-76
2023/12/12 02:12:48;;;;;;;10.75;1.83;;;;;;;-146.25;100.00;52650.03;2080424;28;36595;-78
2023/12/12 02:13:50;;;;;;;11.15;2.20;;;;;;;-146.25;100.00;52660.19;2080739;28;34771;-78
2023/12/12 02:14:53;;;;;;;11.13;2.17;;;;;;;-146.25;100.00;52706.81;2081223;28;20946;-79
2023/12/12 02:15:57;;;;;;;9.95;1.90;;;;;;;-146.25;100.00;52684.50;2080612;28;20784;-78
2023/12/12 02:16:59;;;;;;;7.32;2.45;;;;;;;-146.25;100.00;52652.06;2080685;28;35246;-77
2023/12/12 02:18:01;;;;;;;8.05;1.98;;;;;;;-146.25;100.00;52641.94;2080115;28;32372;-78
2023/12/12 02:19:02;;;;;;;9.77;2.30;;;;;;;-146.25;100.00;52648.00;2080159;28;34631;-79
2023/12/12 02:20:05;;;;;;;12.70;2.13;;;;;;;-146.25;100.00;52680.47;2080598;28;31626;-77
2023/12/12 02:21:15;;;;;;;13.98;2.28;;;;;;;-146.25;100.00;52672.34;2080537;28;36289;-79
2023/12/12 02:22:16;;;;;;;8.77;1.63;;;;;;;-146.25;100.00;52733.19;2081033;28;35175;-77
2023/12/12 02:23:20;;;;;;;9.20;2.25;;;;;;;-146.25;100.00;52674.38;2081104;28;20045;-78
2023/12/12 02:24:22;;;;;;;10.02;2.20;;;;;;;-146.25;100.00;52678.44;2080571;28;35123;-77
2023/12/12 02:25:24;;;;;;;10.18;2.25;;;;;;;-146.25;100.00;52652.06;2080568;28;35914;-78
2023/12/12 02:26:26;;;;;;;11.27;2.20;;;;;;;-146.25;100.00;52641.94;2080515;28;35501;-78
2023/12/12 02:27:28;;;;;;;10.95;2.35;;;;;;;-146.25;100.00;52688.56;2080439;28;33984;-79
2023/12/12 02:28:30;;;;;;;7.68;2.30;;;;;;;-146.25;100.00;52637.88;2079871;28;36376;-77
2023/12/12 02:29:32;;;;;;;7.90;2.25;;;;;;;-146.25;100.00;52662.22;2079698;28;35099;-79
2023/12/12 02:30:35;;;;;;;9.90;2.53;;;;;;;-146.25;100.00;52688.56;2079774;28;37979;-77
2023/12/12 02:31:37;;;;;;;7.43;2.85;;;;;;;-146.25;100.00;52654.09;2071670;28;31545;-78
2023/12/12 02:32:39;;;;;;;11.35;2.67;;;;;;;-146.25;100.00;52680.47;2072288;28;33294;-75
2023/12/12 02:33:41;;;;;;;6.40;2.40;;;;;;;-146.25;100.00;52672.34;2080818;28;36986;-78
2023/12/12 02:34:43;;;;;;;6.97;2.38;;;;;;;-146.25;100.00;52656.13;2080020;28;36759;-78
2023/12/12 02:35:45;;;;;;;9.68;2.35;;;;;;;-146.25;100.00;52643.97;2079605;28;32547;-78
2023/12/12 02:36:47;;;;;;;15.23;2.60;;;;;;;-146.25;100.00;52666.25;2080136;28;36549;-80
2023/12/12 02:37:48;;;;;;;8.90;2.47;;;;;;;-146.25;100.00;52688.56;2080671;28;33374;-78
2023/12/12 02:38:50;;;;;;;7.38;2.50;;;;;;;-146.25;100.00;52706.81;2080884;28;32121;-79
2023/12/12 02:39:52;;;;;;;10.25;2.33;;;;;;;-146.25;100.00;52662.22;2080293;28;37461;-78
2023/12/12 02:40:54;;;;;;;11.60;2.58;;;;;;;-146.25;100.00;52702.75;2081480;28;20030;-77
2023/12/12 02:41:55;;;;;;;10.75;2.40;;;;;;;-146.25;100.00;52660.19;2079714;28;35398;-78
2023/12/12 02:43:00;;;;;;;8.75;2.55;;;;;;;-146.25;100.00;52676.41;2079676;28;36973;-78
2023/12/12 02:44:04;;;;;;;11.98;2.30;;;;;;;-146.25;100.00;52648.00;2080243;28;34539;-78
2023/12/12 02:45:06;;;;;;;7.60;2.55;;;;;;;-146.25;100.00;52694.66;2080444;28;35624;-78
2023/12/12 02:46:08;;;;;;;9.57;2.50;;;;;;;-146.25;100.00;52623.69;2080365;28;37287;-80
2023/12/12 02:47:09;;;;;;;7.28;2.83;;;;;;;-146.25;100.00;52676.41;2080781;28;35724;-77
2023/12/12 02:48:12;;;;;;;10.48;2.80;;;;;;;-146.25;100.00;52652.06;2080349;28;33981;-79
2023/12/12 02:49:14;;;;;;;7.28;2.28;;;;;;;-146.25;100.00;52674.38;2080619;28;32287;-77
2023/12/12 02:50:17;;;;;;;5.82;2.40;;;;;;;-146.25;100.00;52672.34;2079895;28;35190;-80
2023/12/12 02:51:19;;;;;;;8.98;2.47;;;;;;;-146.25;100.00;52682.47;2081361;28;20903;-78
2023/12/12 02:52:23;;;;;;;7.78;2.38;;;;;;;-146.25;100.00;52670.31;2080104;28;36686;-79
2023/12/12 02:53:25;;;;;;;8.07;2.65;;;;;;;-146.25;100.00;52648.00;2080400;28;33511;-80
2023/12/12 02:54:27;;;;;;;6.47;2.28;;;;;;;-146.25;100.00;52641.94;2080924;28;24071;-79
2023/12/12 02:55:28;;;;;;;14.15;2.85;;;;;;;-146.25;100.00;52692.63;2080585;28;36936;-80
2023/12/12 02:56:32;;;;;;;11.25;3.47;;;;;;;-146.25;100.00;52674.38;2081455;28;20042;-80
2023/12/12 02:57:34;;;;;;;9.35;2.38;;;;;;;-146.25;100.00;52696.69;2080503;28;32348;-76
2023/12/12 02:58:36;;;;;;;8.38;2.80;;;;;;;-146.25;100.00;52666.25;2080155;28;37712;-78
2023/12/12 02:59:38;;;;;;;8.95;3.08;;;;;;;-146.25;100.00;52688.56;2081225;28;20116;-78
2023/12/12 03:00:40;;;;;;;8.82;2.70;;;;;;;-146.25;100.00;52704.78;2082869;28;36476;-77
2023/12/12 03:01:41;;;;;;;13.05;2.90;;;;;;;-146.25;100.00;52688.56;2088744;28;35713;-79
2023/12/12 03:02:43;;;;;;;9.52;3.03;;;;;;;-146.25;100.00;52678.44;2088887;28;20049;-77
2023/12/12 03:03:45;;;;;;;7.50;2.78;;;;;;;-146.25;100.00;52668.28;2088510;28;35798;-80
2023/12/12 03:04:50;;;;;;;6.10;2.50;;;;;;;-146.25;100.00;52692.63;2088280;28;33897;-76
2023/12/12 03:05:51;;;;;;;6.88;2.50;;;;;;;-146.25;100.00;52694.66;2088262;28;30742;-78
2023/12/12 03:06:56;;;;;;;11.85;3.10;;;;;;;-146.25;100.00;52666.25;2088605;28;36707;-77
2023/12/12 03:07:58;;;;;;;9.93;2.55;;;;;;;-146.25;100.00;52672.34;2088781;28;37665;-79
2023/12/12 03:09:00;;;;;;;8.32;2.47;;;;;;;-146.25;100.00;52680.47;2089290;28;20933;-78
2023/12/12 03:10:01;;;;;;;10.35;2.80;;;;;;;-146.25;100.00;52680.47;2088745;28;34866;-80
2023/12/12 03:11:03;;;;;;;9.23;2.58;;;;;;;-146.25;100.00;52684.50;2087780;28;38335;-80
2023/12/12 03:12:05;;;;;;;10.57;2.92;;;;;;;-146.25;100.00;52656.13;2087465;28;35385;-77
2023/12/12 03:13:07;;;;;;;7.78;2.75;;;;;;;-146.25;100.00;52692.63;2088116;28;33677;-77
2023/12/12 03:14:11;;;;;;;6.65;2.65;;;;;;;-146.25;100.00;52694.66;2089246;28;20050;-79
2023/12/12 03:15:13;;;;;;;7.57;2.50;;;;;;;-146.25;100.00;52696.69;2088169;28;31911;-77
2023/12/12 03:16:15;;;;;;;6.30;2.95;;;;;;;-146.25;100.00;52698.72;2088855;28;37569;-78
2023/12/12 03:17:16;;;;;;;8.55;3.17;;;;;;;-146.25;100.00;52682.47;2088534;28;34553;-79
2023/12/12 03:18:18;;;;;;;9.70;2.80;;;;;;;-146.25;100.00;52672.34;2089351;28;33948;-78
2023/12/12 03:19:22;;;;;;;10.45;3.22;;;;;;;-146.25;100.00;52680.47;2084384;28;33556;-76
2023/12/12 03:20:24;;;;;;;7.63;2.88;;;;;;;-146.25;100.00;52692.63;2080853;28;20049;-79
2023/12/12 03:21:25;;;;;;;8.05;3.20;;;;;;;-146.25;100.00;52702.75;2080027;28;37364;-79
2023/12/12 03:22:30;;;;;;;11.70;3.15;;;;;;;-146.25;100.00;52680.47;2080360;28;36124;-80
2023/12/12 03:23:32;;;;;;;11.80;3.08;;;;;;;-146.25;100.00;52639.91;2079695;28;32751;-79
2023/12/12 03:24:33;;;;;;;8.50;2.60;;;;;;;-146.25;100.00;52684.50;2080450;28;35894;-79
2023/12/12 03:25:35;;;;;;;11.82;3.17;;;;;;;-146.25;100.00;52682.47;2080102;28;36155;-78
2023/12/12 03:26:38;;;;;;;6.15;2.47;;;;;;;-146.25;100.00;52670.31;2080142;28;35894;-79
2023/12/12 03:27:40;;;;;;;7.93;2.65;;;;;;;-146.25;100.00;52662.22;2080021;28;36568;-78
2023/12/12 03:28:46;;;;;;;6.45;2.85;;;;;;;-146.25;100.00;52674.38;2080333;28;32219;-79
2023/12/12 03:29:48;;;;;;;10.40;2.78;;;;;;;-146.25;100.00;52686.53;2079455;28;38080;-79
2023/12/12 03:30:49;;;;;;;9.80;3.38;;;;;;;-146.25;100.00;52729.13;2080182;28;37477;-79
2023/12/12 03:31:51;;;;;;;11.98;3.03;;;;;;;-146.25;100.00;52682.47;2079816;28;33837;-78
2023/12/12 03:32:53;;;;;;;9.40;2.60;;;;;;;-146.25;100.00;52658.16;2080158;28;36868;-79
2023/12/12 03:33:55;;;;;;;8.68;2.60;;;;;;;-146.25;100.00;52668.28;2080038;28;32141;-78
2023/12/12 03:34:57;;;;;;;10.57;2.95;;;;;;;-146.25;100.00;52672.34;2080067;28;33034;-79
2023/12/12 03:35:59;;;;;;;8.32;2.88;;;;;;;-146.25;100.00;52637.88;2080353;28;39225;-78
2023/12/12 03:37:00;;;;;;;11.32;2.80;;;;;;;-146.25;100.00;52666.25;2080178;28;32831;-79
2023/12/12 03:38:03;;;;;;;8.80;2.78;;;;;;;-146.25;100.00;52684.50;2080170;28;30499;-79
2023/12/12 03:39:06;;;;;;;9.07;2.72;;;;;;;-146.25;100.00;52678.44;2081059;28;20046;-79
2023/12/12 03:40:08;;;;;;;7.40;2.67;;;;;;;-146.25;100.00;52641.94;2080098;28;34057;-79
2023/12/12 03:41:13;;;;;;;6.28;2.58;;;;;;;-146.25;100.00;52658.16;2080233;28;37842;-79
2023/12/12 03:42:15;;;;;;;10.52;3.30;;;;;;;-146.25;100.00;52672.34;2079947;28;32658;-76
2023/12/12 03:43:17;;;;;;;10.65;3.20;;;;;;;-146.25;100.00;52696.69;2079978;28;33697;-77
2023/12/12 03:44:19;;;;;;;9.43;3.05;;;;;;;-146.25;100.00;52672.34;2079661;28;36938;-76
2023/12/12 03:45:20;;;;;;;8.93;3.03;;;;;;;-146.25;100.00;52670.31;2079592;28;36865;-79
2023/12/12 03:46:24;;;;;;;11.75;3.33;;;;;;;-146.25;100.00;52690.59;2079407;28;34766;-77
2023/12/12 03:47:26;;;;;;;11.10;3.30;;;;;;;-146.25;100.00;52688.56;2079896;28;35256;-77
2023/12/12 03:48:31;;;;;;;11.57;3.42;;;;;;;-146.25;100.00;52678.44;2079486;28;20050;-77
2023/12/12 03:49:33;;;;;;;8.75;3.15;;;;;;;-146.25;100.00;52696.69;2079960;28;37121;-78
2023/12/12 03:50:35;;;;;;;9.93;2.92;;;;;;;-146.25;100.00;52692.63;2079734;28;35039;-76
2023/12/12 03:51:37;;;;;;;11.77;3.35;;;;;;;-146.25;100.00;52688.56;2079981;28;36133;-78
2023/12/12 03:52:39;;;;;;;11.32;3.80;;;;;;;-146.25;100.00;52680.47;2080214;28;34243;-76
2023/12/12 03:53:41;;;;;;;9.73;3.42;;;;;;;-146.25;100.00;52686.53;2080091;28;38784;-77
2023/12/12 03:54:43;;;;;;;12.75;3.15;;;;;;;-146.25;100.00;52692.63;2079806;28;27024;-77
2023/12/12 03:55:45;;;;;;;7.72;2.92;;;;;;;-146.25;100.00;52676.41;2079185;28;36884;-78
2023/12/12 03:56:46;;;;;;;8.05;3.15;;;;;;;-146.25;100.00;52694.66;2079705;28;35523;-77
2023/12/12 03:57:48;;;;;;;10.15;3.50;;;;;;;-146.25;100.00;52645.97;2079623;28;38276;-77
2023/12/12 03:58:50;;;;;;;11.13;3.25;;;;;;;-146.25;100.00;52660.19;2079874;28;34650;-76
2023/12/12 03:59:54;;;;;;;7.38;3.50;;;;;;;-146.25;100.00;52708.84;2079652;28;34962;-77
2023/12/12 04:00:56;;;;;;;6.68;3.22;;;;;;;-146.25;100.00;52676.41;2079483;28;36339;-76
2023/12/12 04:01:58;;;;;;;10.55;3.20;;;;;;;-146.25;100.00;52700.72;2079369;28;38129;-77
2023/12/12 04:02:59;;;;;;;10.88;3.35;;;;;;;-146.25;100.00;52684.50;2079548;28;32590;-77
2023/12/12 04:04:03;;;;;;;13.25;3.60;;;;;;;-146.25;100.00;52656.13;2079169;28;35559;-77
2023/12/12 04:05:09;;;;;;;11.50;3.40;;;;;;;-146.25;100.00;52678.44;2071049;28;35027;-76
2023/12/12 04:06:12;;;;;;;12.13;3.63;;;;;;;-146.25;100.00;52660.19;2073369;28;20875;-78
2023/12/12 04:07:14;;;;;;;12.27;3.47;;;;;;;-146.25;100.00;52676.41;2079900;28;34939;-77
2023/12/12 04:08:16;;;;;;;9.85;3.95;;;;;;;-146.25;100.00;52704.78;2080332;28;30465;-77
2023/12/12 04:09:18;;;;;;;11.13;3.75;;;;;;;-146.25;100.00;52668.28;2079661;28;36476;-77
2023/12/12 04:10:19;;;;;;;13.75;3.95;;;;;;;-146.25;100.00;52652.06;2080019;28;37998;-76
2023/12/12 04:11:21;;;;;;;9.00;3.35;;;;;;;-146.25;100.00;52708.84;2079558;28;34571;-77
2023/12/12 04:12:23;;;;;;;14.75;4.05;;;;;;;-146.25;100.00;52698.72;2079812;28;38216;-77
2023/12/12 04:13:25;;;;;;;7.88;3.80;;;;;;;-146.25;100.00;52700.72;2079949;28;33929;-75
2023/12/12 04:14:27;;;;;;;10.80;3.63;;;;;;;-146.25;100.00;52658.16;2080099;28;33804;-78
2023/12/12 04:15:29;;;;;;;10.57;4.00;;;;;;;-146.25;100.00;52696.69;2079676;28;37915;-77
2023/12/12 04:16:30;;;;;;;11.38;3.95;;;;;;;-146.25;100.00;52682.47;2079509;28;32496;-77
2023/12/12 04:17:32;;;;;;;12.85;3.95;;;;;;;-146.25;100.00;52676.41;2079099;28;32833;-77
2023/12/12 04:18:34;;;;;;;11.05;3.88;;;;;;;-146.25;100.00;52690.59;2080040;28;38406;-77
2023/12/12 04:19:36;;;;;;;9.80;3.85;;;;;;;-146.25;100.00;52672.34;2079718;28;35212;-77
2023/12/12 04:20:38;;;;;;;12.20;4.03;;;;;;;-146.25;100.00;52692.63;2079539;28;35629;-78
2023/12/12 04:21:43;;;;;;;11.88;4.10;;;;;;;-146.25;100.00;52643.97;2079895;28;35094;-78
2023/12/12 04:22:45;;;;;;;12.23;3.85;;;;;;;-146.25;100.00;52662.22;2079474;28;31893;-78
2023/12/12 04:23:47;;;;;;;15.10;4.70;;;;;;;-146.25;100.00;52670.31;2078815;28;36418;-78
2023/12/12 04:24:48;;;;;;;11.00;4.03;;;;;;;-146.25;100.00;52676.41;2080060;28;34549;-78
2023/12/12 04:25:53;;;;;;;10.68;3.65;;;;;;;-146.25;100.00;52710.88;2079682;28;20046;-78
2023/12/12 04:26:55;;;;;;;14.05;4.35;;;;;;;-146.25;100.00;52682.47;2080155;28;34732;-78
2023/12/12 04:28:00;;;;;;;11.00;4.15;;;;;;;-146.25;100.00;52670.31;2079874;28;34445;-77
2023/12/12 04:29:04;;;;;;;12.73;4.30;;;;;;;-146.25;100.00;52688.56;2080579;28;20113;-78
2023/12/12 04:30:07;;;;;;;9.45;4.10;;;;;;;-146.25;100.00;52684.50;2079378;28;35308;-79
2023/12/12 04:31:14;;;;;;;12.15;4.18;;;;;;;-146.25;100.00;52637.88;2079639;28;36047;-77
2023/12/12 04:32:18;;;;;;;14.00;3.78;;;;;;;-146.25;100.00;52688.56;2079818;28;34669;-78
2023/12/12 04:33:20;;;;;;;9.73;3.80;;;;;;;-146.25;100.00;52670.31;2079997;28;35031;-77
2023/12/12 04:34:22;;;;;;;12.25;4.00;;;;;;;-146.25;100.00;52690.59;2079985;28;20045;-77
2023/12/12 04:35:24;;;;;;;10.32;3.78;;;;;;;-146.25;100.00;52656.13;2087514;28;36805;-78
2023/12/12 04:36:25;;;;;;;8.70;3.85;;;;;;;-146.25;100.00;52704.78;2087777;28;36259;-78
2023/12/12 04:37:28;;;;;;;11.70;3.75;;;;;;;-146.25;100.00;52668.28;2088754;28;26454;-78
2023/12/12 04:38:29;;;;;;;12.50;3.88;;;;;;;-146.25;100.00;52692.63;2087875;28;38983;-78
2023/12/12 04:39:32;;;;;;;12.75;3.42;;;;;;;-146.25;100.00;52686.53;2088578;28;20818;-77
2023/12/12 04:40:36;;;;;;;14.35;4.03;;;;;;;-146.25;100.00;52678.44;2080715;28;35593;-77
2023/12/12 04:41:41;;;;;;;8.93;3.75;;;;;;;-146.25;100.00;52660.19;2079682;28;34288;-78
2023/12/12 04:42:42;;;;;;;9.20;3.80;;;;;;;-146.25;100.00;52692.63;2079323;28;35873;-78
2023/12/12 04:43:44;;;;;;;13.60;3.63;;;;;;;-146.25;100.00;52718.97;2079740;28;38366;-78